sensor_id;sensor_type;location;lat;lon;timestamp;P1;durP1;ratioP1;P2;durP2;ratioP2
76725;SDS011;65651;53.154;17.916;2022-12-07T00:01:31;23.90;;;7.90;;
76725;SDS011;65651;53.154;17.916;2022-12-07T00:04:04;45.10;;;15.90;;
76725;SDS011;65651;53.154;17.916;2022-12-07T00:06:33;36.90;;;10.10;;
76725;SDS011;65651;53.154;17.916;2022-12-07T00:09:06;33.70;;;8.90;;
76725;SDS011;65651;53.154;17.916;2022-12-07T00:11:35;24.60;;;5.90;;
76725;SDS011;65651;53.154;17.916;2022-12-07T00:14:03;40.60;;;12.40;;
76725;SDS011;65651;53.154;17.916;2022-12-07T00:16:33;32.00;;;9.70;;
76725;SDS011;65651;53.154;17.916;2022-12-07T00:19:00;21.80;;;6.70;;
76725;SDS011;65651;53.154;17.916;2022-12-07T00:21:28;35.90;;;9.70;;
76725;SDS011;65651;53.154;17.916;2022-12-07T00:23:57;35.00;;;11.50;;
76725;SDS011;65651;53.154;17.916;2022-12-07T00:26:28;44.90;;;13.10;;
76725;SDS011;65651;53.154;17.916;2022-12-07T00:28:58;40.30;;;13.20;;
76725;SDS011;65651;53.154;17.916;2022-12-07T00:31:27;23.90;;;5.60;;
76725;SDS011;65651;53.154;17.916;2022-12-07T00:33:57;36.70;;;10.90;;
76725;SDS011;65651;53.154;17.916;2022-12-07T00:36:24;30.70;;;8.30;;
76725;SDS011;65651;53.154;17.916;2022-12-07T00:38:51;49.30;;;15.90;;
76725;SDS011;65651;53.154;17.916;2022-12-07T00:41:20;35.00;;;10.30;;
76725;SDS011;65651;53.154;17.916;2022-12-07T00:43:48;59.70;;;15.00;;
76725;SDS011;65651;53.154;17.916;2022-12-07T00:46:16;22.60;;;5.40;;
76725;SDS011;65651;53.154;17.916;2022-12-07T00:48:44;22.10;;;6.50;;
76725;SDS011;65651;53.154;17.916;2022-12-07T00:51:11;26.40;;;8.40;;
76725;SDS011;65651;53.154;17.916;2022-12-07T00:53:39;18.60;;;7.00;;
76725;SDS011;65651;53.154;17.916;2022-12-07T00:56:39;28.20;;;9.30;;
76725;SDS011;65651;53.154;17.916;2022-12-07T00:59:00;28.10;;;9.20;;
76725;SDS011;65651;53.154;17.916;2022-12-07T01:01:32;17.70;;;6.00;;
76725;SDS011;65651;53.154;17.916;2022-12-07T01:04:00;20.80;;;6.30;;
76725;SDS011;65651;53.154;17.916;2022-12-07T01:06:27;19.00;;;6.20;;
76725;SDS011;65651;53.154;17.916;2022-12-07T01:08:55;29.10;;;10.90;;
76725;SDS011;65651;53.154;17.916;2022-12-07T01:11:23;21.10;;;6.10;;
76725;SDS011;65651;53.154;17.916;2022-12-07T01:13:52;12.90;;;4.50;;
76725;SDS011;65651;53.154;17.916;2022-12-07T01:16:21;31.30;;;9.80;;
76725;SDS011;65651;53.154;17.916;2022-12-07T01:18:50;10.90;;;3.80;;
76725;SDS011;65651;53.154;17.916;2022-12-07T01:21:22;22.30;;;7.20;;
76725;SDS011;65651;53.154;17.916;2022-12-07T01:23:50;17.70;;;5.60;;
76725;SDS011;65651;53.154;17.916;2022-12-07T01:26:20;24.40;;;6.50;;
76725;SDS011;65651;53.154;17.916;2022-12-07T01:28:49;27.40;;;9.40;;
76725;SDS011;65651;53.154;17.916;2022-12-07T01:31:17;17.60;;;5.00;;
76725;SDS011;65651;53.154;17.916;2022-12-07T01:33:46;22.40;;;5.30;;
76725;SDS011;65651;53.154;17.916;2022-12-07T01:36:19;23.30;;;7.70;;
76725;SDS011;65651;53.154;17.916;2022-12-07T01:38:54;20.90;;;8.00;;
76725;SDS011;65651;53.154;17.916;2022-12-07T01:41:23;49.90;;;15.30;;
76725;SDS011;65651;53.154;17.916;2022-12-07T01:46:53;40.20;;;13.30;;
76725;SDS011;65651;53.154;17.916;2022-12-07T01:54:44;27.60;;;8.10;;
76725;SDS011;65651;53.154;17.916;2022-12-07T01:57:13;26.30;;;8.40;;
76725;SDS011;65651;53.154;17.916;2022-12-07T01:59:45;13.80;;;3.10;;
76725;SDS011;65651;53.154;17.916;2022-12-07T02:02:18;22.30;;;5.40;;
76725;SDS011;65651;53.154;17.916;2022-12-07T02:04:49;20.60;;;5.60;;
76725;SDS011;65651;53.154;17.916;2022-12-07T02:07:19;34.40;;;10.80;;
76725;SDS011;65651;53.154;17.916;2022-12-07T02:09:47;23.70;;;5.80;;
76725;SDS011;65651;53.154;17.916;2022-12-07T02:12:14;31.50;;;10.40;;
76725;SDS011;65651;53.154;17.916;2022-12-07T02:14:41;37.60;;;11.10;;
76725;SDS011;65651;53.154;17.916;2022-12-07T02:17:13;43.40;;;10.60;;
76725;SDS011;65651;53.154;17.916;2022-12-07T02:27:47;30.30;;;5.90;;
76725;SDS011;65651;53.154;17.916;2022-12-07T02:30:19;33.80;;;8.60;;
76725;SDS011;65651;53.154;17.916;2022-12-07T02:38:06;35.40;;;10.30;;
76725;SDS011;65651;53.154;17.916;2022-12-07T02:41:05;27.30;;;6.40;;
76725;SDS011;65651;53.154;17.916;2022-12-07T02:46:15;58.60;;;18.70;;
76725;SDS011;65651;53.154;17.916;2022-12-07T02:48:46;31.30;;;8.00;;
76725;SDS011;65651;53.154;17.916;2022-12-07T02:51:14;47.10;;;12.90;;
76725;SDS011;65651;53.154;17.916;2022-12-07T02:53:43;22.10;;;5.30;;
76725;SDS011;65651;53.154;17.916;2022-12-07T02:59:15;36.00;;;10.10;;
76725;SDS011;65651;53.154;17.916;2022-12-07T03:13:22;25.60;;;9.10;;
76725;SDS011;65651;53.154;17.916;2022-12-07T03:19:11;34.70;;;5.90;;
76725;SDS011;65651;53.154;17.916;2022-12-07T03:22:03;18.90;;;4.30;;
76725;SDS011;65651;53.154;17.916;2022-12-07T03:24:35;17.50;;;4.70;;
76725;SDS011;65651;53.154;17.916;2022-12-07T03:27:09;30.40;;;7.20;;
76725;SDS011;65651;53.154;17.916;2022-12-07T03:29:55;45.20;;;12.00;;
76725;SDS011;65651;53.154;17.916;2022-12-07T03:32:30;36.40;;;8.10;;
76725;SDS011;65651;53.154;17.916;2022-12-07T03:37:47;31.00;;;6.80;;
76725;SDS011;65651;53.154;17.916;2022-12-07T03:42:49;43.30;;;11.60;;
76725;SDS011;65651;53.154;17.916;2022-12-07T03:45:16;103.80;;;37.10;;
76725;SDS011;65651;53.154;17.916;2022-12-07T03:47:47;65.60;;;22.80;;
76725;SDS011;65651;53.154;17.916;2022-12-07T03:53:18;54.90;;;13.50;;
76725;SDS011;65651;53.154;17.916;2022-12-07T03:55:51;44.70;;;12.00;;
76725;SDS011;65651;53.154;17.916;2022-12-07T03:58:20;38.10;;;8.30;;
76725;SDS011;65651;53.154;17.916;2022-12-07T04:00:49;196.00;;;46.90;;
76725;SDS011;65651;53.154;17.916;2022-12-07T04:03:16;271.90;;;55.60;;
76725;SDS011;65651;53.154;17.916;2022-12-07T04:05:43;638.30;;;165.70;;
76725;SDS011;65651;53.154;17.916;2022-12-07T04:08:10;308.10;;;62.60;;
76725;SDS011;65651;53.154;17.916;2022-12-07T04:10:37;209.40;;;39.60;;
76725;SDS011;65651;53.154;17.916;2022-12-07T04:13:03;112.50;;;20.80;;
76725;SDS011;65651;53.154;17.916;2022-12-07T04:15:30;113.80;;;24.10;;
76725;SDS011;65651;53.154;17.916;2022-12-07T04:17:57;84.90;;;17.10;;
76725;SDS011;65651;53.154;17.916;2022-12-07T04:20:24;35.60;;;9.10;;
76725;SDS011;65651;53.154;17.916;2022-12-07T04:22:51;55.00;;;12.60;;
76725;SDS011;65651;53.154;17.916;2022-12-07T04:25:17;53.60;;;12.10;;
76725;SDS011;65651;53.154;17.916;2022-12-07T04:27:44;56.20;;;11.50;;
76725;SDS011;65651;53.154;17.916;2022-12-07T04:30:10;73.80;;;17.50;;
76725;SDS011;65651;53.154;17.916;2022-12-07T04:32:37;83.90;;;22.60;;
76725;SDS011;65651;53.154;17.916;2022-12-07T04:35:04;234.50;;;54.70;;
76725;SDS011;65651;53.154;17.916;2022-12-07T04:37:31;151.40;;;30.70;;
76725;SDS011;65651;53.154;17.916;2022-12-07T04:39:58;104.10;;;25.00;;
76725;SDS011;65651;53.154;17.916;2022-12-07T04:42:25;62.70;;;12.90;;
76725;SDS011;65651;53.154;17.916;2022-12-07T04:44:51;42.60;;;10.20;;
76725;SDS011;65651;53.154;17.916;2022-12-07T04:47:18;58.70;;;11.90;;
76725;SDS011;65651;53.154;17.916;2022-12-07T04:49:45;42.50;;;12.50;;
76725;SDS011;65651;53.154;17.916;2022-12-07T04:52:12;63.30;;;15.60;;
76725;SDS011;65651;53.154;17.916;2022-12-07T04:54:40;44.90;;;11.00;;
76725;SDS011;65651;53.154;17.916;2022-12-07T04:57:06;47.00;;;13.60;;
76725;SDS011;65651;53.154;17.916;2022-12-07T04:59:37;35.60;;;8.80;;
76725;SDS011;65651;53.154;17.916;2022-12-07T05:02:04;32.50;;;8.40;;
76725;SDS011;65651;53.154;17.916;2022-12-07T05:04:30;38.70;;;9.70;;
76725;SDS011;65651;53.154;17.916;2022-12-07T05:06:57;29.80;;;8.30;;
76725;SDS011;65651;53.154;17.916;2022-12-07T05:09:23;36.00;;;9.30;;
76725;SDS011;65651;53.154;17.916;2022-12-07T05:11:50;24.60;;;7.20;;
76725;SDS011;65651;53.154;17.916;2022-12-07T05:14:17;34.90;;;8.60;;
76725;SDS011;65651;53.154;17.916;2022-12-07T05:16:46;43.80;;;10.30;;
76725;SDS011;65651;53.154;17.916;2022-12-07T05:19:15;35.30;;;8.50;;
76725;SDS011;65651;53.154;17.916;2022-12-07T05:21:45;42.40;;;11.00;;
76725;SDS011;65651;53.154;17.916;2022-12-07T05:24:13;40.10;;;9.80;;
76725;SDS011;65651;53.154;17.916;2022-12-07T05:26:40;48.40;;;10.30;;
76725;SDS011;65651;53.154;17.916;2022-12-07T05:29:10;41.50;;;12.60;;
76725;SDS011;65651;53.154;17.916;2022-12-07T05:31:38;35.00;;;8.60;;
76725;SDS011;65651;53.154;17.916;2022-12-07T05:34:05;26.30;;;5.40;;
76725;SDS011;65651;53.154;17.916;2022-12-07T05:36:32;42.80;;;10.40;;
76725;SDS011;65651;53.154;17.916;2022-12-07T05:38:58;34.10;;;6.80;;
76725;SDS011;65651;53.154;17.916;2022-12-07T05:41:26;43.80;;;7.10;;
76725;SDS011;65651;53.154;17.916;2022-12-07T05:44:11;35.90;;;8.50;;
76725;SDS011;65651;53.154;17.916;2022-12-07T05:46:38;54.30;;;10.40;;
76725;SDS011;65651;53.154;17.916;2022-12-07T05:49:05;49.70;;;10.50;;
76725;SDS011;65651;53.154;17.916;2022-12-07T05:51:31;53.90;;;11.90;;
76725;SDS011;65651;53.154;17.916;2022-12-07T05:53:58;58.80;;;11.40;;
76725;SDS011;65651;53.154;17.916;2022-12-07T05:56:25;61.90;;;16.40;;
76725;SDS011;65651;53.154;17.916;2022-12-07T05:58:53;90.60;;;22.30;;
76725;SDS011;65651;53.154;17.916;2022-12-07T06:01:39;27.80;;;8.10;;
76725;SDS011;65651;53.154;17.916;2022-12-07T06:04:06;31.90;;;6.80;;
76725;SDS011;65651;53.154;17.916;2022-12-07T06:06:32;65.50;;;17.20;;
76725;SDS011;65651;53.154;17.916;2022-12-07T06:08:59;49.40;;;8.80;;
76725;SDS011;65651;53.154;17.916;2022-12-07T06:11:26;45.10;;;9.50;;
76725;SDS011;65651;53.154;17.916;2022-12-07T06:14:11;75.90;;;18.80;;
76725;SDS011;65651;53.154;17.916;2022-12-07T06:16:38;69.70;;;14.70;;
76725;SDS011;65651;53.154;17.916;2022-12-07T06:19:04;52.20;;;8.10;;
76725;SDS011;65651;53.154;17.916;2022-12-07T06:21:31;64.90;;;15.00;;
76725;SDS011;65651;53.154;17.916;2022-12-07T06:23:57;39.60;;;9.10;;
76725;SDS011;65651;53.154;17.916;2022-12-07T06:26:24;43.30;;;9.50;;
76725;SDS011;65651;53.154;17.916;2022-12-07T06:28:51;25.00;;;6.00;;
76725;SDS011;65651;53.154;17.916;2022-12-07T06:31:20;52.20;;;12.70;;
76725;SDS011;65651;53.154;17.916;2022-12-07T06:33:47;43.00;;;9.50;;
76725;SDS011;65651;53.154;17.916;2022-12-07T06:36:13;48.90;;;10.20;;
76725;SDS011;65651;53.154;17.916;2022-12-07T06:38:40;53.90;;;11.70;;
76725;SDS011;65651;53.154;17.916;2022-12-07T06:41:07;75.00;;;15.20;;
76725;SDS011;65651;53.154;17.916;2022-12-07T06:43:33;61.70;;;14.10;;
76725;SDS011;65651;53.154;17.916;2022-12-07T06:46:00;44.30;;;9.70;;
76725;SDS011;65651;53.154;17.916;2022-12-07T06:48:28;48.40;;;11.90;;
76725;SDS011;65651;53.154;17.916;2022-12-07T06:50:54;53.90;;;8.60;;
76725;SDS011;65651;53.154;17.916;2022-12-07T06:53:21;48.60;;;11.50;;
76725;SDS011;65651;53.154;17.916;2022-12-07T06:55:48;67.70;;;16.00;;
76725;SDS011;65651;53.154;17.916;2022-12-07T06:58:15;61.70;;;11.50;;
76725;SDS011;65651;53.154;17.916;2022-12-07T07:00:42;57.90;;;15.60;;
76725;SDS011;65651;53.154;17.916;2022-12-07T07:03:09;62.20;;;12.10;;
76725;SDS011;65651;53.154;17.916;2022-12-07T07:05:36;96.00;;;22.90;;
76725;SDS011;65651;53.154;17.916;2022-12-07T07:08:03;97.80;;;24.70;;
76725;SDS011;65651;53.154;17.916;2022-12-07T07:10:30;120.30;;;36.60;;
76725;SDS011;65651;53.154;17.916;2022-12-07T07:12:56;87.90;;;25.80;;
76725;SDS011;65651;53.154;17.916;2022-12-07T07:15:23;71.40;;;19.20;;
76725;SDS011;65651;53.154;17.916;2022-12-07T07:17:50;63.00;;;13.00;;
76725;SDS011;65651;53.154;17.916;2022-12-07T07:20:16;82.90;;;18.60;;
76725;SDS011;65651;53.154;17.916;2022-12-07T07:22:43;93.70;;;26.00;;
76725;SDS011;65651;53.154;17.916;2022-12-07T07:25:09;75.60;;;22.90;;
76725;SDS011;65651;53.154;17.916;2022-12-07T07:27:38;72.30;;;23.60;;
76725;SDS011;65651;53.154;17.916;2022-12-07T07:30:05;59.60;;;14.70;;
76725;SDS011;65651;53.154;17.916;2022-12-07T07:32:32;114.60;;;32.20;;
76725;SDS011;65651;53.154;17.916;2022-12-07T07:34:59;81.30;;;22.50;;
76725;SDS011;65651;53.154;17.916;2022-12-07T07:37:25;80.90;;;24.40;;
76725;SDS011;65651;53.154;17.916;2022-12-07T07:39:52;91.10;;;27.00;;
76725;SDS011;65651;53.154;17.916;2022-12-07T07:42:19;118.90;;;36.50;;
76725;SDS011;65651;53.154;17.916;2022-12-07T07:44:46;79.30;;;21.60;;
76725;SDS011;65651;53.154;17.916;2022-12-07T07:47:12;125.90;;;30.60;;
76725;SDS011;65651;53.154;17.916;2022-12-07T07:49:39;195.00;;;46.50;;
76725;SDS011;65651;53.154;17.916;2022-12-07T07:52:06;186.90;;;49.20;;
76725;SDS011;65651;53.154;17.916;2022-12-07T07:54:33;139.20;;;35.90;;
76725;SDS011;65651;53.154;17.916;2022-12-07T07:56:59;117.00;;;34.20;;
76725;SDS011;65651;53.154;17.916;2022-12-07T07:59:26;56.30;;;17.30;;
76725;SDS011;65651;53.154;17.916;2022-12-07T08:01:53;71.80;;;20.30;;
76725;SDS011;65651;53.154;17.916;2022-12-07T08:04:22;60.10;;;14.70;;
76725;SDS011;65651;53.154;17.916;2022-12-07T08:06:49;55.00;;;17.50;;
76725;SDS011;65651;53.154;17.916;2022-12-07T08:09:15;43.80;;;11.10;;
76725;SDS011;65651;53.154;17.916;2022-12-07T08:11:42;56.40;;;16.60;;
76725;SDS011;65651;53.154;17.916;2022-12-07T08:14:09;45.30;;;12.60;;
76725;SDS011;65651;53.154;17.916;2022-12-07T08:16:37;38.90;;;10.80;;
76725;SDS011;65651;53.154;17.916;2022-12-07T08:19:04;47.90;;;11.50;;
76725;SDS011;65651;53.154;17.916;2022-12-07T08:21:32;58.40;;;17.70;;
76725;SDS011;65651;53.154;17.916;2022-12-07T08:23:58;59.50;;;19.20;;
76725;SDS011;65651;53.154;17.916;2022-12-07T08:26:25;61.10;;;14.80;;
76725;SDS011;65651;53.154;17.916;2022-12-07T08:28:52;225.90;;;54.80;;
76725;SDS011;65651;53.154;17.916;2022-12-07T08:31:19;94.30;;;26.90;;
76725;SDS011;65651;53.154;17.916;2022-12-07T08:33:49;71.80;;;20.30;;
76725;SDS011;65651;53.154;17.916;2022-12-07T08:36:16;100.30;;;30.90;;
76725;SDS011;65651;53.154;17.916;2022-12-07T08:38:43;107.90;;;35.10;;
76725;SDS011;65651;53.154;17.916;2022-12-07T08:41:10;121.30;;;34.00;;
76725;SDS011;65651;53.154;17.916;2022-12-07T08:43:37;54.90;;;17.60;;
76725;SDS011;65651;53.154;17.916;2022-12-07T08:48:44;81.80;;;26.70;;
76725;SDS011;65651;53.154;17.916;2022-12-07T08:51:24;55.40;;;18.80;;
76725;SDS011;65651;53.154;17.916;2022-12-07T08:53:54;65.40;;;18.60;;
76725;SDS011;65651;53.154;17.916;2022-12-07T08:56:22;42.70;;;12.60;;
76725;SDS011;65651;53.154;17.916;2022-12-07T08:58:49;63.30;;;19.90;;
76725;SDS011;65651;53.154;17.916;2022-12-07T09:01:15;42.90;;;14.30;;
76725;SDS011;65651;53.154;17.916;2022-12-07T09:03:42;64.90;;;20.30;;
76725;SDS011;65651;53.154;17.916;2022-12-07T09:06:11;40.30;;;11.00;;
76725;SDS011;65651;53.154;17.916;2022-12-07T09:08:42;49.60;;;12.00;;
76725;SDS011;65651;53.154;17.916;2022-12-07T09:11:14;77.30;;;23.80;;
76725;SDS011;65651;53.154;17.916;2022-12-07T09:13:41;81.60;;;22.90;;
76725;SDS011;65651;53.154;17.916;2022-12-07T09:16:07;67.60;;;20.10;;
76725;SDS011;65651;53.154;17.916;2022-12-07T09:18:34;63.50;;;14.40;;
76725;SDS011;65651;53.154;17.916;2022-12-07T09:21:01;58.20;;;16.30;;
76725;SDS011;65651;53.154;17.916;2022-12-07T09:23:27;43.90;;;12.40;;
76725;SDS011;65651;53.154;17.916;2022-12-07T09:25:54;56.70;;;17.50;;
76725;SDS011;65651;53.154;17.916;2022-12-07T09:28:22;43.10;;;14.00;;
76725;SDS011;65651;53.154;17.916;2022-12-07T09:30:49;43.20;;;12.90;;
76725;SDS011;65651;53.154;17.916;2022-12-07T09:33:16;36.00;;;7.50;;
76725;SDS011;65651;53.154;17.916;2022-12-07T09:35:46;32.80;;;8.60;;
76725;SDS011;65651;53.154;17.916;2022-12-07T09:38:17;45.10;;;12.50;;
76725;SDS011;65651;53.154;17.916;2022-12-07T09:40:45;38.70;;;11.40;;
76725;SDS011;65651;53.154;17.916;2022-12-07T09:43:14;51.70;;;15.40;;
76725;SDS011;65651;53.154;17.916;2022-12-07T09:45:43;40.70;;;12.70;;
76725;SDS011;65651;53.154;17.916;2022-12-07T09:48:16;31.20;;;10.30;;
76725;SDS011;65651;53.154;17.916;2022-12-07T09:50:57;42.00;;;10.50;;
76725;SDS011;65651;53.154;17.916;2022-12-07T09:53:26;36.00;;;11.80;;
76725;SDS011;65651;53.154;17.916;2022-12-07T09:55:56;40.20;;;11.70;;
76725;SDS011;65651;53.154;17.916;2022-12-07T09:58:25;50.20;;;17.10;;
76725;SDS011;65651;53.154;17.916;2022-12-07T10:00:55;45.30;;;11.70;;
76725;SDS011;65651;53.154;17.916;2022-12-07T10:03:28;55.10;;;17.80;;
76725;SDS011;65651;53.154;17.916;2022-12-07T10:05:55;39.70;;;12.30;;
76725;SDS011;65651;53.154;17.916;2022-12-07T10:08:24;38.60;;;11.30;;
76725;SDS011;65651;53.154;17.916;2022-12-07T10:10:52;42.30;;;13.20;;
76725;SDS011;65651;53.154;17.916;2022-12-07T10:16:08;44.80;;;12.20;;
76725;SDS011;65651;53.154;17.916;2022-12-07T10:24:52;44.60;;;13.00;;
76725;SDS011;65651;53.154;17.916;2022-12-07T10:29:50;21.60;;;5.90;;
76725;SDS011;65651;53.154;17.916;2022-12-07T10:34:45;37.50;;;11.10;;
76725;SDS011;65651;53.154;17.916;2022-12-07T10:42:29;75.40;;;22.60;;
76725;SDS011;65651;53.154;17.916;2022-12-07T10:45:13;65.80;;;21.70;;
76725;SDS011;65651;53.154;17.916;2022-12-07T11:00:24;49.60;;;12.70;;
76725;SDS011;65651;53.154;17.916;2022-12-07T11:06:01;53.90;;;21.00;;
76725;SDS011;65651;53.154;17.916;2022-12-07T11:08:47;61.30;;;21.60;;
76725;SDS011;65651;53.154;17.916;2022-12-07T11:14:01;43.50;;;12.10;;
76725;SDS011;65651;53.154;17.916;2022-12-07T11:16:43;36.80;;;12.00;;
76725;SDS011;65651;53.154;17.916;2022-12-07T11:24:36;51.70;;;16.90;;
76725;SDS011;65651;53.154;17.916;2022-12-07T11:27:25;37.20;;;10.70;;
76725;SDS011;65651;53.154;17.916;2022-12-07T11:36:17;28.80;;;9.10;;
76725;SDS011;65651;53.154;17.916;2022-12-07T11:39:02;28.90;;;9.50;;
76725;SDS011;65651;53.154;17.916;2022-12-07T11:41:37;28.20;;;7.90;;
76725;SDS011;65651;53.154;17.916;2022-12-07T11:44:22;46.60;;;15.10;;
76725;SDS011;65651;53.154;17.916;2022-12-07T11:47:09;38.80;;;13.00;;
76725;SDS011;65651;53.154;17.916;2022-12-07T11:49:44;42.60;;;15.20;;
76725;SDS011;65651;53.154;17.916;2022-12-07T11:52:20;43.60;;;13.50;;
76725;SDS011;65651;53.154;17.916;2022-12-07T11:54:53;35.50;;;11.60;;
76725;SDS011;65651;53.154;17.916;2022-12-07T11:57:24;37.70;;;12.30;;
76725;SDS011;65651;53.154;17.916;2022-12-07T11:59:59;51.40;;;21.10;;
76725;SDS011;65651;53.154;17.916;2022-12-07T12:03:13;44.60;;;16.40;;
76725;SDS011;65651;53.154;17.916;2022-12-07T12:05:48;30.10;;;9.40;;
76725;SDS011;65651;53.154;17.916;2022-12-07T12:08:51;26.90;;;10.20;;
76725;SDS011;65651;53.154;17.916;2022-12-07T12:14:42;37.60;;;11.60;;
76725;SDS011;65651;53.154;17.916;2022-12-07T12:20:01;31.30;;;10.30;;
76725;SDS011;65651;53.154;17.916;2022-12-07T12:22:34;25.60;;;8.10;;
76725;SDS011;65651;53.154;17.916;2022-12-07T12:25:02;35.80;;;14.40;;
76725;SDS011;65651;53.154;17.916;2022-12-07T12:27:33;45.70;;;15.50;;
76725;SDS011;65651;53.154;17.916;2022-12-07T12:30:06;32.20;;;11.30;;
76725;SDS011;65651;53.154;17.916;2022-12-07T12:32:50;23.20;;;7.30;;
76725;SDS011;65651;53.154;17.916;2022-12-07T12:37:47;32.40;;;12.30;;
76725;SDS011;65651;53.154;17.916;2022-12-07T12:52:50;53.10;;;17.50;;
76725;SDS011;65651;53.154;17.916;2022-12-07T12:55:21;70.90;;;26.40;;
76725;SDS011;65651;53.154;17.916;2022-12-07T13:00:47;57.60;;;17.80;;
76725;SDS011;65651;53.154;17.916;2022-12-07T13:03:35;41.00;;;12.30;;
76725;SDS011;65651;53.154;17.916;2022-12-07T13:09:01;50.10;;;14.30;;
76725;SDS011;65651;53.154;17.916;2022-12-07T13:11:29;48.70;;;16.90;;
76725;SDS011;65651;53.154;17.916;2022-12-07T13:17:54;32.10;;;10.60;;
76725;SDS011;65651;53.154;17.916;2022-12-07T13:22:35;42.50;;;14.90;;
76725;SDS011;65651;53.154;17.916;2022-12-07T13:27:34;38.50;;;13.30;;
76725;SDS011;65651;53.154;17.916;2022-12-07T13:30:07;48.20;;;17.80;;
76725;SDS011;65651;53.154;17.916;2022-12-07T13:32:55;45.60;;;14.40;;
76725;SDS011;65651;53.154;17.916;2022-12-07T13:38:00;47.70;;;16.60;;
76725;SDS011;65651;53.154;17.916;2022-12-07T13:40:30;35.40;;;14.20;;
76725;SDS011;65651;53.154;17.916;2022-12-07T13:43:00;38.00;;;12.20;;
76725;SDS011;65651;53.154;17.916;2022-12-07T13:45:30;45.90;;;14.60;;
76725;SDS011;65651;53.154;17.916;2022-12-07T13:51:18;53.00;;;15.50;;
76725;SDS011;65651;53.154;17.916;2022-12-07T13:53:47;34.30;;;11.60;;
76725;SDS011;65651;53.154;17.916;2022-12-07T13:56:18;41.20;;;14.70;;
76725;SDS011;65651;53.154;17.916;2022-12-07T13:58:47;51.70;;;17.50;;
76725;SDS011;65651;53.154;17.916;2022-12-07T14:01:14;52.40;;;16.40;;
76725;SDS011;65651;53.154;17.916;2022-12-07T14:03:41;35.60;;;15.10;;
76725;SDS011;65651;53.154;17.916;2022-12-07T14:09:05;30.60;;;10.20;;
76725;SDS011;65651;53.154;17.916;2022-12-07T14:11:41;62.60;;;24.70;;
76725;SDS011;65651;53.154;17.916;2022-12-07T14:14:10;63.00;;;24.40;;
76725;SDS011;65651;53.154;17.916;2022-12-07T14:16:42;44.50;;;15.40;;
76725;SDS011;65651;53.154;17.916;2022-12-07T14:22:36;57.60;;;20.80;;
76725;SDS011;65651;53.154;17.916;2022-12-07T14:27:39;60.30;;;22.50;;
76725;SDS011;65651;53.154;17.916;2022-12-07T14:30:15;44.10;;;14.30;;
76725;SDS011;65651;53.154;17.916;2022-12-07T14:32:44;32.80;;;11.10;;
76725;SDS011;65651;53.154;17.916;2022-12-07T14:35:15;60.30;;;20.90;;
76725;SDS011;65651;53.154;17.916;2022-12-07T14:37:44;60.30;;;21.50;;
76725;SDS011;65651;53.154;17.916;2022-12-07T14:40:19;67.30;;;26.90;;
76725;SDS011;65651;53.154;17.916;2022-12-07T14:42:52;88.00;;;29.30;;
76725;SDS011;65651;53.154;17.916;2022-12-07T14:45:22;71.60;;;22.90;;
76725;SDS011;65651;53.154;17.916;2022-12-07T14:47:49;69.70;;;25.30;;
76725;SDS011;65651;53.154;17.916;2022-12-07T14:50:17;116.90;;;40.50;;
76725;SDS011;65651;53.154;17.916;2022-12-07T14:52:52;92.10;;;35.30;;
76725;SDS011;65651;53.154;17.916;2022-12-07T14:57:53;69.20;;;24.70;;
76725;SDS011;65651;53.154;17.916;2022-12-07T15:00:21;75.90;;;28.70;;
76725;SDS011;65651;53.154;17.916;2022-12-07T15:02:49;63.50;;;22.90;;
76725;SDS011;65651;53.154;17.916;2022-12-07T15:05:17;34.50;;;11.40;;
76725;SDS011;65651;53.154;17.916;2022-12-07T15:07:43;99.80;;;36.10;;
76725;SDS011;65651;53.154;17.916;2022-12-07T15:10:16;68.50;;;24.50;;
76725;SDS011;65651;53.154;17.916;2022-12-07T15:12:48;68.30;;;27.40;;
76725;SDS011;65651;53.154;17.916;2022-12-07T15:15:15;81.70;;;31.20;;
76725;SDS011;65651;53.154;17.916;2022-12-07T15:17:41;85.30;;;32.70;;
76725;SDS011;65651;53.154;17.916;2022-12-07T15:20:12;58.60;;;21.40;;
76725;SDS011;65651;53.154;17.916;2022-12-07T15:22:40;72.10;;;28.60;;
76725;SDS011;65651;53.154;17.916;2022-12-07T15:25:06;61.60;;;22.50;;
76725;SDS011;65651;53.154;17.916;2022-12-07T15:27:34;53.50;;;17.80;;
76725;SDS011;65651;53.154;17.916;2022-12-07T15:30:02;74.80;;;28.40;;
76725;SDS011;65651;53.154;17.916;2022-12-07T15:32:29;96.70;;;35.10;;
76725;SDS011;65651;53.154;17.916;2022-12-07T15:34:55;69.10;;;27.10;;
76725;SDS011;65651;53.154;17.916;2022-12-07T15:37:22;42.70;;;17.10;;
76725;SDS011;65651;53.154;17.916;2022-12-07T15:39:48;42.40;;;15.80;;
76725;SDS011;65651;53.154;17.916;2022-12-07T15:42:15;43.60;;;14.80;;
76725;SDS011;65651;53.154;17.916;2022-12-07T15:44:41;36.60;;;13.10;;
76725;SDS011;65651;53.154;17.916;2022-12-07T15:47:26;50.10;;;18.60;;
76725;SDS011;65651;53.154;17.916;2022-12-07T15:49:53;65.00;;;31.90;;
76725;SDS011;65651;53.154;17.916;2022-12-07T15:52:21;37.80;;;15.20;;
76725;SDS011;65651;53.154;17.916;2022-12-07T15:54:48;63.70;;;22.90;;
76725;SDS011;65651;53.154;17.916;2022-12-07T15:57:14;54.30;;;20.00;;
76725;SDS011;65651;53.154;17.916;2022-12-07T15:59:42;53.30;;;21.70;;
76725;SDS011;65651;53.154;17.916;2022-12-07T16:02:09;42.50;;;15.60;;
76725;SDS011;65651;53.154;17.916;2022-12-07T16:04:36;55.10;;;18.80;;
76725;SDS011;65651;53.154;17.916;2022-12-07T16:07:03;30.50;;;9.20;;
76725;SDS011;65651;53.154;17.916;2022-12-07T16:09:29;59.30;;;20.50;;
76725;SDS011;65651;53.154;17.916;2022-12-07T16:11:56;44.10;;;12.90;;
76725;SDS011;65651;53.154;17.916;2022-12-07T16:14:23;32.80;;;11.30;;
76725;SDS011;65651;53.154;17.916;2022-12-07T16:16:50;57.00;;;21.00;;
76725;SDS011;65651;53.154;17.916;2022-12-07T16:19:16;35.50;;;11.30;;
76725;SDS011;65651;53.154;17.916;2022-12-07T16:21:43;53.00;;;20.30;;
76725;SDS011;65651;53.154;17.916;2022-12-07T16:24:10;55.50;;;19.10;;
76725;SDS011;65651;53.154;17.916;2022-12-07T16:26:38;83.50;;;32.20;;
76725;SDS011;65651;53.154;17.916;2022-12-07T16:29:05;67.40;;;25.80;;
76725;SDS011;65651;53.154;17.916;2022-12-07T16:31:32;45.20;;;15.70;;
76725;SDS011;65651;53.154;17.916;2022-12-07T16:33:58;81.80;;;32.80;;
76725;SDS011;65651;53.154;17.916;2022-12-07T16:36:25;55.70;;;19.30;;
76725;SDS011;65651;53.154;17.916;2022-12-07T16:38:53;68.30;;;25.40;;
76725;SDS011;65651;53.154;17.916;2022-12-07T16:41:20;74.20;;;21.30;;
76725;SDS011;65651;53.154;17.916;2022-12-07T16:43:46;88.10;;;28.30;;
76725;SDS011;65651;53.154;17.916;2022-12-07T16:46:13;57.80;;;17.60;;
76725;SDS011;65651;53.154;17.916;2022-12-07T16:48:41;51.40;;;16.90;;
76725;SDS011;65651;53.154;17.916;2022-12-07T16:51:08;51.30;;;17.10;;
76725;SDS011;65651;53.154;17.916;2022-12-07T16:53:37;50.10;;;17.00;;
76725;SDS011;65651;53.154;17.916;2022-12-07T16:56:12;30.00;;;9.60;;
76725;SDS011;65651;53.154;17.916;2022-12-07T16:58:41;51.10;;;15.30;;
76725;SDS011;65651;53.154;17.916;2022-12-07T17:01:12;50.60;;;15.80;;